createdAt,value
2019-05-30T00:00:14.493Z,36.63
2019-05-30T00:03:04.870Z,36.63
2019-05-30T00:06:08.448Z,36.63
2019-05-30T00:09:12.194Z,36.63
2019-05-30T00:12:15.694Z,36.70
2019-05-30T00:15:19.213Z,36.65
2019-05-30T00:18:22.713Z,36.62
2019-05-30T00:21:26.139Z,36.61
2019-05-30T00:24:29.601Z,36.66
2019-05-30T00:27:33.118Z,36.68
2019-05-30T00:30:36.533Z,36.61
2019-05-30T00:33:40.124Z,36.64
2019-05-30T00:36:43.648Z,36.69
2019-05-30T00:39:48.147Z,36.64
2019-05-30T00:42:51.558Z,36.69
2019-05-30T00:45:55.880Z,36.69
2019-05-30T00:49:00.187Z,36.68
2019-05-30T00:52:05.083Z,36.67
2019-05-30T00:55:08.698Z,36.71
2019-05-30T00:58:12.127Z,36.68
2019-05-30T01:01:15.726Z,36.66
2019-05-30T01:04:20.118Z,36.69
2019-05-30T01:07:23.547Z,36.69
2019-05-30T01:10:27.051Z,36.67
2019-05-30T01:13:30.555Z,36.65
2019-05-30T01:16:34.065Z,36.62
2019-05-30T01:19:37.706Z,36.63
2019-05-30T01:22:42.311Z,36.67
2019-05-30T01:25:45.784Z,36.68
2019-05-30T01:28:49.182Z,36.71
2019-05-30T01:31:52.787Z,36.71
2019-05-30T01:34:57.559Z,36.67
2019-05-30T01:38:02.257Z,36.65
2019-05-30T01:41:05.969Z,36.67
2019-05-30T01:44:09.525Z,36.67
2019-05-30T01:47:12.953Z,36.68
2019-05-30T01:50:18.034Z,36.66
2019-05-30T01:53:21.507Z,36.63
2019-05-30T01:56:26.124Z,36.66
2019-05-30T01:59:29.616Z,36.70
2019-05-30T02:02:34.154Z,36.69
2019-05-30T02:05:37.666Z,36.69
2019-05-30T02:08:41.166Z,36.66
2019-05-30T02:11:45.676Z,36.70
2019-05-30T02:14:49.173Z,36.66
2019-05-30T02:17:52.673Z,36.72
2019-05-30T02:20:56.088Z,36.68
2019-05-30T02:23:59.819Z,36.71
2019-05-30T02:27:04.165Z,36.70
2019-05-30T02:30:11.338Z,36.69
2019-05-30T02:33:13.457Z,36.69
2019-05-30T02:36:16.958Z,36.66
2019-05-30T02:39:20.458Z,36.69
2019-05-30T02:42:24.991Z,36.67
2019-05-30T02:45:28.406Z,36.67
2019-05-30T02:48:31.904Z,36.63
2019-05-30T02:51:36.503Z,36.65
2019-05-30T02:54:39.937Z,36.71
2019-05-30T02:57:43.346Z,36.63
2019-05-30T03:00:46.813Z,36.69
2019-05-30T03:03:50.349Z,36.63
2019-05-30T03:06:53.751Z,36.69
2019-05-30T03:09:57.212Z,36.70
2019-05-30T03:13:01.869Z,36.67
2019-05-30T03:16:07.443Z,36.64
2019-05-30T03:19:12.284Z,36.67
2019-05-30T03:22:16.128Z,36.67
2019-05-30T03:25:19.735Z,36.65
2019-05-30T03:28:23.350Z,36.64
2019-05-30T03:31:29.589Z,36.66
2019-05-30T03:34:32.304Z,36.64
2019-05-30T03:37:35.904Z,36.65
2019-05-30T03:40:39.320Z,36.68
2019-05-30T03:43:42.788Z,36.71
2019-05-30T03:46:51.521Z,36.69
2019-05-30T03:49:55.117Z,36.64
2019-05-30T03:52:58.622Z,36.66
2019-05-30T03:56:06.665Z,36.66
2019-05-30T03:59:22.349Z,36.65
2019-05-30T04:02:56.078Z,36.71
2019-05-30T04:05:51.066Z,36.64
2019-05-30T04:08:57.777Z,36.59
2019-05-30T04:12:14.985Z,36.63
2019-05-30T04:15:31.250Z,36.67
2019-05-30T04:18:34.719Z,36.67
2019-05-30T04:21:38.126Z,36.66
2019-05-30T04:24:41.616Z,36.62
2019-05-30T04:27:45.119Z,36.63
2019-05-30T04:30:48.535Z,36.59
2019-05-30T04:33:52.147Z,36.61
2019-05-30T04:36:55.623Z,36.58
2019-05-30T04:39:59.123Z,36.58
2019-05-30T04:43:02.532Z,36.58
2019-05-30T04:46:06.112Z,36.57
2019-05-30T04:49:12.174Z,36.60
2019-05-30T04:52:20.476Z,36.55
2019-05-30T04:55:23.130Z,36.59
2019-05-30T04:58:26.479Z,36.52
2019-05-30T05:01:29.991Z,36.57
2019-05-30T05:04:34.515Z,36.59
2019-05-30T05:07:39.042Z,36.49
2019-05-30T05:10:42.549Z,36.49
2019-05-30T05:13:46.032Z,36.51
2019-05-30T05:16:49.562Z,36.45
2019-05-30T05:19:53.053Z,36.47
2019-05-30T05:22:56.685Z,36.47
2019-05-30T05:26:01.231Z,36.45
2019-05-30T05:29:05.187Z,36.45
2019-05-30T05:32:08.680Z,36.46
2019-05-30T05:35:14.670Z,36.43
2019-05-30T05:38:18.330Z,36.42
2019-05-30T05:41:22.277Z,36.46
2019-05-30T05:44:26.069Z,36.42
2019-05-30T05:47:29.817Z,36.36
2019-05-30T05:50:33.441Z,36.37
2019-05-30T05:53:37.018Z,36.37
2019-05-30T05:56:40.565Z,36.33
2019-05-30T05:59:44.078Z,36.27
2019-05-30T06:02:47.585Z,36.23
2019-05-30T06:05:53.227Z,36.23
2019-05-30T06:08:56.221Z,36.13
2019-05-30T06:11:59.721Z,36.27
2019-05-30T06:15:03.407Z,36.31
2019-05-30T06:18:06.925Z,36.34
2019-05-30T06:21:10.437Z,36.37
2019-05-30T06:24:14.050Z,36.40
2019-05-30T06:27:17.825Z,36.57
2019-05-30T06:30:22.369Z,36.57
2019-05-30T06:33:27.128Z,36.59
2019-05-30T06:36:30.792Z,36.62
2019-05-30T06:39:34.360Z,36.64
2019-05-30T06:42:37.805Z,36.76
2019-05-30T06:45:41.676Z,36.80
2019-05-30T06:48:45.214Z,36.75
2019-05-30T06:51:48.722Z,36.95
2019-05-30T06:54:52.243Z,36.87
2019-05-30T06:57:55.732Z,36.55
2019-05-30T07:00:59.357Z,36.52
2019-05-30T07:04:03.214Z,36.49
2019-05-30T07:07:07.263Z,36.65
2019-05-30T07:10:11.527Z,36.59
2019-05-30T07:13:15.172Z,36.67
2019-05-30T07:16:18.766Z,36.59
2019-05-30T07:19:23.256Z,36.85
2019-05-30T07:22:27.753Z,36.80
2019-05-30T07:25:32.359Z,36.91
2019-05-30T07:28:36.012Z,36.98
2019-05-30T07:31:39.559Z,36.97
2019-05-30T07:34:45.949Z,36.86
2019-05-30T07:37:48.433Z,36.70
2019-05-30T07:40:52.924Z,36.54
2019-05-30T07:43:56.448Z,36.51
2019-05-30T07:46:59.927Z,36.70
2019-05-30T07:50:03.562Z,36.83
2019-05-30T07:53:07.197Z,36.81
2019-05-30T07:56:10.653Z,36.76
2019-05-30T07:59:14.137Z,36.82
2019-05-30T08:02:18.736Z,37.05
2019-05-30T08:05:24.623Z,37.07
2019-05-30T08:08:29.784Z,36.73
2019-05-30T08:11:33.288Z,36.60
2019-05-30T08:44:42.606Z,35.90
2019-05-30T08:47:46.101Z,35.87
2019-05-30T08:50:49.619Z,35.80
2019-05-30T08:53:53.179Z,35.80
2019-05-30T08:56:56.606Z,35.79
2019-05-30T09:00:00.105Z,35.71
2019-05-30T09:03:03.632Z,35.71
2019-05-30T09:06:07.103Z,35.62
2019-05-30T09:09:10.606Z,35.61
2019-05-30T09:12:15.127Z,35.79
2019-05-30T09:15:21.841Z,35.86
2019-05-30T09:18:24.126Z,35.98
2019-05-30T09:21:27.701Z,36.01
2019-05-30T09:24:32.288Z,36.06
2019-05-30T09:27:39.018Z,36.09
2019-05-30T09:30:43.542Z,36.13
2019-05-30T09:33:48.612Z,36.16
2019-05-30T09:36:52.408Z,36.13
2019-05-30T09:39:55.878Z,36.16
2019-05-30T09:42:59.517Z,36.17
2019-05-30T09:46:03.078Z,36.15
2019-05-30T09:49:06.570Z,36.11
2019-05-30T09:52:10.067Z,36.08
2019-05-30T09:55:14.957Z,35.97
2019-05-30T09:58:18.585Z,35.99
2019-05-30T10:01:22.009Z,36.02
2019-05-30T10:04:25.523Z,36.00
2019-05-30T10:07:29.011Z,36.06
2019-05-30T10:10:32.539Z,36.03
2019-05-30T10:13:37.038Z,36.04
2019-05-30T10:16:40.550Z,36.07
2019-05-30T10:19:45.390Z,36.04
2019-05-30T10:22:51.682Z,36.03
2019-05-30T10:25:54.728Z,36.02
2019-05-30T10:28:58.349Z,36.05
2019-05-30T10:32:01.936Z,36.06
2019-05-30T10:35:06.438Z,36.01
2019-05-30T10:38:09.970Z,35.98
2019-05-30T10:41:14.486Z,36.00
2019-05-30T10:44:17.981Z,35.97
2019-05-30T10:47:22.547Z,35.94
2019-05-30T10:50:26.021Z,35.90
2019-05-30T10:53:30.544Z,35.89
2019-05-30T10:56:35.067Z,35.85
2019-05-30T10:59:38.564Z,35.85
2019-05-30T11:02:42.067Z,35.84
2019-05-30T11:05:50.587Z,35.83
2019-05-30T11:08:54.782Z,35.88
2019-05-30T11:11:58.298Z,35.78
2019-05-30T11:15:04.152Z,35.75
2019-05-30T11:18:07.578Z,35.72
2019-05-30T11:21:11.058Z,35.67
2019-05-30T11:24:14.683Z,35.66
2019-05-30T11:27:18.421Z,35.76
2019-05-30T11:30:21.985Z,35.95
2019-05-30T11:33:25.479Z,35.88
2019-05-30T11:36:28.977Z,35.85
2019-05-30T11:39:34.524Z,35.81
2019-05-30T11:42:38.025Z,35.76
2019-05-30T11:45:41.658Z,35.81
2019-05-30T11:48:45.238Z,35.86
2019-05-30T11:51:49.687Z,35.86
2019-05-30T11:54:54.161Z,35.88
2019-05-30T11:57:58.508Z,35.87
2019-05-30T12:01:01.907Z,35.84
